Time;durP1;ratioP1;P1;durP2;ratioP2;P2;SDS_P1;SDS_P2;PMS_P1;PMS_P2;Temp;Humidity;BMP_temperature;BMP_pressure;BME280_temperature;BME280_humidity;BME280_pressure;Samples;Min_cycle;Max_cycle;Signal;HPM_P1;HPM_P2
2022/10/09 00:01:15;;;;;;;;;;;;;;;11.07;57.35;101506.22;4939738;28;6796;-81
2022/10/09 00:03:44;;;;;;;;;;;;;;;11.06;57.28;101501.88;4940753;28;6844;-83
2022/10/09 00:06:13;;;;;;;;;;;;;;;11.04;57.32;101495.78;4940512;28;8534;-80
2022/10/09 00:08:42;;;;;;;;;;;;;;;11.03;56.56;101504.25;4922480;28;6812;-79
2022/10/09 00:11:16;;;;;;;;;;;;;;;10.97;57.21;101500.50;4943709;28;7216;-77
2022/10/09 00:13:43;;;;;;;;;;;;;;;10.96;56.87;101502.97;4930401;28;6852;-78
2022/10/09 00:16:11;;;;;;;;;;;;;;;10.94;56.47;101500.31;4940023;28;8612;-78
2022/10/09 00:18:38;;;;;;;;;;;;;;;10.90;56.83;101495.75;4927192;28;7083;-80
2022/10/09 00:21:05;;;;;;;;;;;;;;;10.89;57.08;101501.69;4938523;28;8438;-80
2022/10/09 00:23:31;;;;;;;;;;;;;;;10.88;57.45;101491.34;4941063;28;6856;-80
2022/10/09 00:26:00;;;;;;;;;;;;;;;10.87;57.32;101493.00;4940134;28;7472;-78
2022/10/09 00:28:29;;;;;;;;;;;;;;;10.86;57.49;101491.25;4940957;28;7223;-79
2022/10/09 00:30:55;;;;;;;;;;;;;;;10.82;56.72;101490.16;4942053;28;7756;-79
2022/10/09 00:33:21;;;;;;;;;;;;;;;10.79;57.21;101504.44;4922690;28;8620;-79
2022/10/09 00:35:47;;;;;;;;;;;;;;;10.75;57.31;101503.34;4930121;28;7018;-78
2022/10/09 00:38:13;;;;;;;;;;;;;;;10.72;57.11;101509.97;4939921;28;6822;-78
2022/10/09 00:40:39;;;;;;;;;;;;;;;10.67;57.14;101499.41;4923551;28;8493;-78
2022/10/09 00:43:36;;;;;;;;;;;;;;;10.63;57.05;101495.78;4939283;28;6776;-78
2022/10/09 00:46:02;;;;;;;;;;;;;;;10.61;57.44;101497.31;4932542;28;7399;-81
2022/10/09 00:48:28;;;;;;;;;;;;;;;10.60;57.39;101500.69;4929228;28;8617;-79
2022/10/09 00:50:58;;;;;;;;;;;;;;;10.56;57.22;101493.59;4940180;28;7028;-78
2022/10/09 00:53:28;;;;;;;;;;;;;;;10.54;57.66;101496.03;4919453;28;8510;-79
2022/10/09 00:55:55;;;;;;;;;;;;;;;10.54;57.06;101498.59;4939250;28;6796;-81
2022/10/09 00:58:22;;;;;;;;;;;;;;;10.50;57.16;101494.09;4939501;28;6808;-79
2022/10/09 01:00:48;;;;;;;;;;;;;;;10.47;56.95;101496.41;4927635;28;8419;-79
2022/10/09 01:03:14;;;;;;;;;;;;;;;10.44;56.32;101495.34;4938482;28;6792;-80
2022/10/09 01:06:01;;;;;;;;;;;;;;;10.40;57.15;101492.53;4938391;28;6783;-79
2022/10/09 01:08:50;;;;;;;;;;;;;;;10.37;57.45;101491.44;4938692;28;8481;-81
2022/10/09 01:11:36;;;;;;;;;;;;;;;10.35;57.59;101491.34;4913191;28;8555;-79
2022/10/09 01:14:24;;;;;;;;;;;;;;;10.32;57.71;101491.13;4940460;28;7557;-80
2022/10/09 01:17:16;;;;;;;;;;;;;;;10.30;57.82;101495.28;4939665;28;7286;-79
2022/10/09 01:20:25;;;;;;;;;;;;;;;10.23;57.30;101491.41;4939927;28;6970;-79
2022/10/09 01:23:25;;;;;;;;;;;;;;;10.19;56.61;101506.50;4941749;28;7003;-79
2022/10/09 01:26:15;;;;;;;;;;;;;;;10.12;57.56;101494.94;4939777;28;6962;-80
2022/10/09 01:28:52;;;;;;;;;;;;;;;10.07;57.20;101494.63;4940475;28;7261;-79
2022/10/09 01:31:22;;;;;;;;;;;;;;;10.04;57.05;101494.41;4936744;28;10204;-79
2022/10/09 01:33:49;;;;;;;;;;;;;;;10.01;57.35;101494.22;4942383;28;6800;-79
2022/10/09 01:36:16;;;;;;;;;;;;;;;9.96;56.48;101491.34;4936716;28;6857;-79
2022/10/09 01:38:44;;;;;;;;;;;;;;;9.92;56.45;101479.13;4932821;28;7001;-79
2022/10/09 01:41:10;;;;;;;;;;;;;;;9.86;56.08;101479.59;4937997;28;6812;-79
2022/10/09 01:43:36;;;;;;;;;;;;;;;9.82;56.37;101476.72;4924873;28;8624;-81
2022/10/09 01:46:26;;;;;;;;;;;;;;;9.76;56.42;101479.75;4940069;28;8842;-78
2022/10/09 01:49:50;;;;;;;;;;;;;;;9.71;57.12;101481.09;4922050;28;8494;-79
2022/10/09 01:52:36;;;;;;;;;;;;;;;9.64;58.00;101478.88;4938276;28;6995;-79
2022/10/09 01:55:36;;;;;;;;;;;;;;;9.61;58.23;101476.13;4941947;28;7197;-78
2022/10/09 01:58:43;;;;;;;;;;;;;;;9.56;58.16;101468.13;4940520;28;7373;-79
2022/10/09 02:01:17;;;;;;;;;;;;;;;9.54;57.42;101469.69;4935812;28;10586;-79
2022/10/09 02:03:49;;;;;;;;;;;;;;;9.52;58.47;101469.56;4938739;28;8419;-79
2022/10/09 02:06:17;;;;;;;;;;;;;;;9.53;58.91;101463.69;4936984;28;7179;-79
2022/10/09 02:08:48;;;;;;;;;;;;;;;9.55;58.23;101469.78;4928102;28;6998;-79
2022/10/09 02:11:15;;;;;;;;;;;;;;;9.58;58.23;101475.13;4939336;28;8675;-79
2022/10/09 02:13:45;;;;;;;;;;;;;;;9.59;58.09;101469.22;4938387;28;8546;-79
2022/10/09 02:16:38;;;;;;;;;;;;;;;9.59;58.08;101469.22;4937785;28;7144;-79
2022/10/09 02:19:32;;;;;;;;;;;;;;;9.57;57.68;101468.25;4938026;28;6961;-79
2022/10/09 02:22:13;;;;;;;;;;;;;;;9.56;58.36;101468.13;4940379;28;7206;-79
2022/10/09 02:24:41;;;;;;;;;;;;;;;9.54;58.74;101472.25;4940110;28;6816;-78
2022/10/09 02:27:09;;;;;;;;;;;;;;;9.55;57.94;101469.78;4940408;28;7226;-80
2022/10/09 02:29:40;;;;;;;;;;;;;;;9.54;58.39;101468.00;4936374;28;7214;-79
2022/10/09 02:32:06;;;;;;;;;;;;;;;9.51;58.24;101467.81;4939680;28;7139;-78
2022/10/09 02:34:32;;;;;;;;;;;;;;;9.49;57.83;101459.13;4928442;28;6981;-79
2022/10/09 02:36:58;;;;;;;;;;;;;;;9.44;58.38;101456.25;4941399;28;7865;-79
2022/10/09 02:39:24;;;;;;;;;;;;;;;9.41;58.15;101468.81;4943439;28;6780;-79
2022/10/09 02:41:49;;;;;;;;;;;;;;;9.38;58.29;101460.94;4939583;28;6812;-79
2022/10/09 02:44:15;;;;;;;;;;;;;;;9.34;57.42;101451.28;4939548;28;7153;-79
2022/10/09 02:46:40;;;;;;;;;;;;;;;9.30;57.37;101455.28;4934933;28;9893;-79
2022/10/09 02:49:06;;;;;;;;;;;;;;;9.27;57.75;101460.22;4937953;28;6967;-79
2022/10/09 02:51:33;;;;;;;;;;;;;;;9.25;57.91;101469.41;4928929;28;6959;-79
2022/10/09 02:53:58;;;;;;;;;;;;;;;9.22;57.34;101453.88;4939227;28;8704;-79
2022/10/09 02:56:25;;;;;;;;;;;;;;;9.20;57.66;101452.88;4940194;28;7197;-80
2022/10/09 02:58:50;;;;;;;;;;;;;;;9.20;57.26;101446.84;4928059;28;10401;-84
2022/10/09 03:01:16;;;;;;;;;;;;;;;9.21;57.67;101446.06;4935941;28;8495;-84
2022/10/09 03:03:42;;;;;;;;;;;;;;;9.19;58.58;101443.44;4936063;28;7015;-85
2022/10/09 03:06:15;;;;;;;;;;;;;;;9.19;59.01;101440.88;4936377;28;7107;-84
2022/10/09 03:08:45;;;;;;;;;;;;;;;9.18;57.85;101439.09;4938859;28;8524;-87
2022/10/09 03:11:14;;;;;;;;;;;;;;;9.18;58.10;101444.22;4939466;28;6808;-82
2022/10/09 03:13:40;;;;;;;;;;;;;;;9.18;58.39;101449.31;4938198;28;7595;-88
2022/10/09 03:16:13;;;;;;;;;;;;;;;9.18;58.14;101449.31;4939175;28;7103;-82
2022/10/09 03:18:40;;;;;;;;;;;;;;;9.18;58.95;101449.31;4940755;28;6812;-85
2022/10/09 03:21:13;;;;;;;;;;;;;;;9.19;58.31;101451.09;4935716;28;6788;-87
2022/10/09 03:23:39;;;;;;;;;;;;;;;9.19;58.91;101445.97;4935805;28;6788;-87
2022/10/09 03:26:13;;;;;;;;;;;;;;;9.19;58.77;101445.97;4940194;28;8937;-88
2022/10/09 03:28:43;;;;;;;;;;;;;;;9.19;59.00;101439.97;4939749;28;7023;-87
2022/10/09 03:31:09;;;;;;;;;;;;;;;9.18;57.59;101433.97;4924287;28;6820;-85
2022/10/09 03:33:36;;;;;;;;;;;;;;;9.15;57.93;101434.66;4925198;28;8516;-84
2022/10/09 03:36:03;;;;;;;;;;;;;;;9.14;58.35;101434.53;4938866;28;6792;-82
2022/10/09 03:38:29;;;;;;;;;;;;;;;9.12;57.82;101428.41;4941202;28;8022;-84
2022/10/09 03:40:58;;;;;;;;;;;;;;;9.09;58.69;101429.09;4939757;28;6792;-86
2022/10/09 03:43:24;;;;;;;;;;;;;;;9.09;58.26;101429.09;4945036;28;6869;-87
2022/10/09 03:45:49;;;;;;;;;;;;;;;9.08;59.20;101427.31;4941188;28;8441;-84
2022/10/09 03:48:15;;;;;;;;;;;;;;;9.06;58.97;101428.88;4939305;28;6772;-83
2022/10/09 03:50:41;;;;;;;;;;;;;;;9.04;58.57;101422.78;4939523;28;6967;-81
2022/10/09 03:53:10;;;;;;;;;;;;;;;9.04;58.03;101425.34;4941360;28;7444;-87
2022/10/09 03:55:36;;;;;;;;;;;;;;;9.04;58.63;101422.78;4925332;28;6983;-85
2022/10/09 03:58:02;;;;;;;;;;;;;;;9.05;58.68;101423.66;4943149;28;7463;-85
2022/10/09 04:00:28;;;;;;;;;;;;;;;9.05;58.35;101415.97;4940911;28;6968;-87
2022/10/09 04:02:54;;;;;;;;;;;;;;;9.03;58.46;101419.31;4942544;28;6788;-84
2022/10/09 04:05:19;;;;;;;;;;;;;;;9.03;59.24;101424.44;4942568;28;8500;-87
2022/10/09 04:07:45;;;;;;;;;;;;;;;9.05;58.90;101414.31;4942335;28;8509;-87
2022/10/09 04:10:11;;;;;;;;;;;;;;;9.07;59.25;101419.53;4936051;28;7371;-84
2022/10/09 04:12:37;;;;;;;;;;;;;;;9.06;58.75;101421.22;4941948;28;6784;-87
2022/10/09 04:15:04;;;;;;;;;;;;;;;9.07;59.33;101410.19;4941725;28;6868;-81
2022/10/09 04:17:30;;;;;;;;;;;;;;;9.07;59.30;101411.84;4937312;28;6804;-84
2022/10/09 04:19:55;;;;;;;;;;;;;;;9.11;59.42;101413.84;4939876;28;7202;-86
2022/10/09 04:22:21;;;;;;;;;;;;;;;9.12;58.47;101411.38;4938149;28;6784;-85
2022/10/09 04:24:46;;;;;;;;;;;;;;;9.11;58.59;101411.31;4914451;28;8398;-82
2022/10/09 04:27:12;;;;;;;;;;;;;;;9.11;58.58;101408.75;4943103;28;8330;-84
2022/10/09 04:29:38;;;;;;;;;;;;;;;9.10;58.18;101409.53;4937379;28;6864;-87
2022/10/09 04:32:04;;;;;;;;;;;;;;;9.09;58.69;101405.19;4925372;28;7205;-86
2022/10/09 04:34:30;;;;;;;;;;;;;;;9.08;58.25;101400.84;4941036;28;7065;-85
2022/10/09 04:36:55;;;;;;;;;;;;;;;9.07;58.93;101409.28;4939504;28;6768;-86
2022/10/09 04:39:21;;;;;;;;;;;;;;;9.03;59.51;101403.97;4925190;28;7204;-81
2022/10/09 04:41:47;;;;;;;;;;;;;;;9.02;58.26;101391.97;4941919;28;6792;-86
2022/10/09 04:44:12;;;;;;;;;;;;;;;9.00;58.04;101388.44;4939618;28;6920;-84
2022/10/09 04:46:38;;;;;;;;;;;;;;;8.98;58.61;101387.44;4932239;28;7199;-87
2022/10/09 04:49:03;;;;;;;;;;;;;;;8.96;58.74;101390.66;4943260;28;7027;-84
2022/10/09 04:51:29;;;;;;;;;;;;;;;8.94;58.87;101382.00;4920370;28;8578;-82
2022/10/09 04:53:55;;;;;;;;;;;;;;;8.92;58.70;101384.44;4929825;28;7135;-87
2022/10/09 04:56:23;;;;;;;;;;;;;;;8.92;59.70;101389.56;4940173;28;7416;-85
2022/10/09 04:58:48;;;;;;;;;;;;;;;8.93;58.98;101383.66;4936363;28;7194;-80
2022/10/09 05:01:19;;;;;;;;;;;;;;;8.94;58.54;101385.41;4923982;28;8743;-84
2022/10/09 05:03:45;;;;;;;;;;;;;;;8.94;58.71;101387.97;4941067;28;6954;-87
2022/10/09 05:06:13;;;;;;;;;;;;;;;8.94;59.68;101390.53;4942190;28;7126;-82
2022/10/09 05:08:41;;;;;;;;;;;;;;;8.93;58.76;101386.22;4925831;28;7039;-87
2022/10/09 05:11:14;;;;;;;;;;;;;;;8.92;59.06;101389.56;4934557;28;7293;-81
2022/10/09 05:13:44;;;;;;;;;;;;;;;8.89;58.83;101389.34;4936417;28;7213;-81
2022/10/09 05:16:14;;;;;;;;;;;;;;;8.85;58.31;101385.69;4919459;28;6815;-78
2022/10/09 05:18:53;;;;;;;;;;;;;;;8.82;58.73;101387.13;4938446;28;6832;-87
2022/10/09 05:21:21;;;;;;;;;;;;;;;8.81;58.52;101385.34;4923257;28;7070;-84
2022/10/09 05:23:48;;;;;;;;;;;;;;;8.79;58.06;101390.34;4924713;28;7214;-87
2022/10/09 05:26:19;;;;;;;;;;;;;;;8.77;58.65;101388.44;4921979;28;6994;-82
2022/10/09 05:28:46;;;;;;;;;;;;;;;8.75;58.60;101389.22;4940267;28;6808;-85
2022/10/09 05:31:25;;;;;;;;;;;;;;;8.74;59.60;101390.00;4929083;28;9014;-82
2022/10/09 05:33:52;;;;;;;;;;;;;;;8.74;58.71;101386.59;4941322;28;6985;-87
2022/10/09 05:36:18;;;;;;;;;;;;;;;8.74;59.50;101378.91;4934141;28;6804;-80
2022/10/09 05:38:44;;;;;;;;;;;;;;;8.75;59.56;101386.69;4936392;28;8730;-82
2022/10/09 05:41:14;;;;;;;;;;;;;;;8.78;58.87;101383.47;4934108;28;6959;-81
2022/10/09 05:43:43;;;;;;;;;;;;;;;8.78;58.41;101390.22;4941074;28;6958;-84
2022/10/09 05:46:11;;;;;;;;;;;;;;;8.77;59.30;101376.56;4925146;28;6820;-85
2022/10/09 05:48:40;;;;;;;;;;;;;;;8.77;58.98;101385.91;4941294;28;7194;-86
2022/10/09 05:51:15;;;;;;;;;;;;;;;8.75;58.67;101386.69;4936288;28;6996;-86
2022/10/09 05:53:43;;;;;;;;;;;;;;;8.71;58.17;101382.13;4938590;28;8462;-84
2022/10/09 05:56:28;;;;;;;;;;;;;;;8.71;58.25;101384.69;4928096;28;8455;-81
2022/10/09 05:59:00;;;;;;;;;;;;;;;8.70;59.57;101388.03;4923796;28;7252;-86
2022/10/09 06:01:31;;;;;;;;;;;;;;;8.69;59.49;101383.72;4937272;28;7326;-85
2022/10/09 06:03:58;;;;;;;;;;;;;;;8.68;59.21;101379.34;4935757;28;6995;-80
2022/10/09 06:06:28;;;;;;;;;;;;;;;8.68;59.69;101379.34;4937549;28;7297;-85
2022/10/09 06:08:55;;;;;;;;;;;;;;;8.68;59.61;101378.47;4917196;28;6854;-86
2022/10/09 06:11:27;;;;;;;;;;;;;;;8.68;59.78;101376.78;4937718;28;6980;-83
2022/10/09 06:13:57;;;;;;;;;;;;;;;8.69;59.92;101381.16;4941584;28;6978;-85
2022/10/09 06:16:32;;;;;;;;;;;;;;;8.73;59.25;101382.22;4920138;28;7023;-80
2022/10/09 06:19:00;;;;;;;;;;;;;;;8.77;60.06;101379.13;4935928;28;7063;-83
2022/10/09 06:21:27;;;;;;;;;;;;;;;8.81;59.28;101381.09;4933077;28;7002;-80
2022/10/09 06:23:56;;;;;;;;;;;;;;;8.85;60.37;101379.66;4937190;28;7061;-80
2022/10/09 06:26:24;;;;;;;;;;;;;;;8.92;59.04;101384.44;4921377;28;7323;-84
2022/10/09 06:28:51;;;;;;;;;;;;;;;8.97;59.76;101383.06;4921858;28;8458;-84
2022/10/09 06:31:24;;;;;;;;;;;;;;;9.03;59.66;101377.53;4938234;28;7290;-86
2022/10/09 06:33:51;;;;;;;;;;;;;;;9.08;59.87;101388.03;4938130;28;6808;-87
2022/10/09 06:36:24;;;;;;;;;;;;;;;9.14;59.92;101384.28;4922469;28;7250;-86
2022/10/09 06:38:51;;;;;;;;;;;;;;;9.21;60.42;101383.03;4937079;28;7493;-85
2022/10/09 06:41:23;;;;;;;;;;;;;;;9.29;60.58;101380.97;4939893;28;6853;-86
2022/10/09 06:43:53;;;;;;;;;;;;;;;9.37;60.14;101373.84;4934712;28;8607;-86
2022/10/09 06:46:21;;;;;;;;;;;;;;;9.47;60.49;101378.81;4939019;28;6804;-85
2022/10/09 06:48:48;;;;;;;;;;;;;;;9.55;60.49;101369.97;4936619;28;7648;-87
2022/10/09 06:51:17;;;;;;;;;;;;;;;9.65;60.05;101375.69;4936462;28;6796;-85
2022/10/09 06:53:50;;;;;;;;;;;;;;;9.75;61.13;101374.66;4925862;28;6948;-82
2022/10/09 06:56:18;;;;;;;;;;;;;;;9.84;60.35;101371.03;4934248;28;8510;-85
2022/10/09 06:58:44;;;;;;;;;;;;;;;9.98;60.44;101376.19;4937884;28;6788;-85
2022/10/09 07:01:25;;;;;;;;;;;;;;;10.07;60.19;101381.94;4938519;28;6864;-86
2022/10/09 07:03:55;;;;;;;;;;;;;;;10.18;60.29;101374.06;4928357;28;6981;-82
2022/10/09 07:06:25;;;;;;;;;;;;;;;10.29;60.47;101373.06;4939445;28;7019;-86
2022/10/09 07:08:56;;;;;;;;;;;;;;;10.39;60.63;101372.88;4944227;28;6812;-87
2022/10/09 07:11:29;;;;;;;;;;;;;;;10.51;60.19;101374.47;4913374;28;7159;-81
2022/10/09 07:13:58;;;;;;;;;;;;;;;10.61;60.71;101376.84;4930554;28;8771;-83
2022/10/09 07:16:32;;;;;;;;;;;;;;;10.72;60.18;101371.50;4922138;28;8497;-87
2022/10/09 07:19:02;;;;;;;;;;;;;;;10.80;60.63;101370.31;4941568;28;6805;-85
2022/10/09 07:21:28;;;;;;;;;;;;;;;10.91;60.41;101371.88;4923830;28;7185;-81
2022/10/09 07:23:54;;;;;;;;;;;;;;;11.00;60.61;101371.56;4944288;28;6965;-87
2022/10/09 07:26:24;;;;;;;;;;;;;;;11.11;60.37;101372.22;4938302;28;6873;-85
2022/10/09 07:28:50;;;;;;;;;;;;;;;11.21;60.40;101376.22;4939777;28;7243;-82
2022/10/09 07:31:16;;;;;;;;;;;;;;;11.33;60.48;101370.97;4922356;28;7053;-80
2022/10/09 07:33:45;;;;;;;;;;;;;;;11.45;60.52;101375.97;4926297;28;6796;-86
2022/10/09 07:36:10;;;;;;;;;;;;;;;11.56;60.40;101379.16;4941743;28;6800;-86
2022/10/09 07:38:37;;;;;;;;;;;;;;;11.66;60.54;101371.19;4926894;28;8498;-85
2022/10/09 07:41:09;;;;;;;;;;;;;;;11.76;60.34;101368.38;4939338;28;6956;-85
2022/10/09 07:43:38;;;;;;;;;;;;;;;11.87;60.46;101370.66;4926446;28;8483;-84
2022/10/09 07:46:08;;;;;;;;;;;;;;;11.96;60.26;101360.94;4935858;28;6823;-81
2022/10/09 07:48:34;;;;;;;;;;;;;;;12.05;60.38;101360.63;4923483;28;7211;-81
2022/10/09 07:51:25;;;;;;;;;;;;;;;12.13;60.23;101364.53;4930563;28;8414;-83
2022/10/09 07:53:52;;;;;;;;;;;;;;;12.22;59.86;101356.44;4942076;28;7183;-83
2022/10/09 07:56:31;;;;;;;;;;;;;;;12.30;60.18;101352.63;4918641;28;7240;-79
2022/10/09 07:59:04;;;;;;;;;;;;;;;12.39;60.20;101352.22;4939844;28;8565;-86
2022/10/09 08:01:32;;;;;;;;;;;;;;;12.47;59.48;101352.69;4937460;28;6828;-87
2022/10/09 08:03:59;;;;;;;;;;;;;;;12.56;59.59;101355.75;4938237;28;8495;-80
2022/10/09 08:06:25;;;;;;;;;;;;;;;12.66;59.34;101351.13;4936493;28;7047;-86
2022/10/09 08:08:53;;;;;;;;;;;;;;;12.76;59.37;101345.69;4940584;28;6800;-88
2022/10/09 08:11:21;;;;;;;;;;;;;;;12.86;59.12;101345.38;4939412;28;6784;-84
2022/10/09 08:13:48;;;;;;;;;;;;;;;12.96;59.64;101344.16;4940170;28;6943;-83
2022/10/09 08:16:15;;;;;;;;;;;;;;;13.09;59.93;101343.13;4935858;28;7238;-85
2022/10/09 08:18:41;;;;;;;;;;;;;;;13.19;58.77;101335.09;4932924;28;8390;-79
2022/10/09 08:21:17;;;;;;;;;;;;;;;13.35;58.80;101341.03;4934085;28;6784;-82
2022/10/09 08:23:44;;;;;;;;;;;;;;;13.45;59.69;101335.59;4923041;28;6856;-85
2022/10/09 08:26:19;;;;;;;;;;;;;;;13.58;59.28;101334.53;4936652;28;7398;-83
2022/10/09 08:28:59;;;;;;;;;;;;;;;13.72;58.50;101329.16;4938675;28;7616;-85
2022/10/09 08:31:26;;;;;;;;;;;;;;;13.84;59.12;101329.78;4932593;28;7817;-86
2022/10/09 08:33:58;;;;;;;;;;;;;;;13.95;58.18;101325.16;4920513;28;6784;-84
2022/10/09 08:36:26;;;;;;;;;;;;;;;14.08;57.86;101325.75;4935212;28;7177;-83
2022/10/09 08:38:52;;;;;;;;;;;;;;;14.21;58.01;101325.53;4930865;28;8966;-84
2022/10/09 08:41:26;;;;;;;;;;;;;;;14.33;58.38;101326.94;4934865;28;6780;-83
2022/10/09 08:44:20;;;;;;;;;;;;;;;14.43;58.41;101329.13;4940633;28;7223;-85
2022/10/09 08:47:01;;;;;;;;;;;;;;;14.56;57.32;101326.31;4941490;28;7163;-84
2022/10/09 08:50:07;;;;;;;;;;;;;;;14.68;57.83;101328.56;4937168;28;6972;-85
2022/10/09 08:53:21;;;;;;;;;;;;;;;14.82;56.98;101324.06;4936090;28;8487;-85
2022/10/09 08:55:57;;;;;;;;;;;;;;;14.93;56.90;101326.25;4936457;28;7178;-84
2022/10/09 08:58:31;;;;;;;;;;;;;;;15.04;57.13;101319.00;4939160;28;8414;-86
2022/10/09 09:01:04;;;;;;;;;;;;;;;15.13;56.66;101312.53;4936624;28;6963;-79
2022/10/09 09:04:20;;;;;;;;;;;;;;;15.24;56.03;101313.00;4937325;28;7100;-85
2022/10/09 09:07:03;;;;;;;;;;;;;;;15.32;55.93;101305.59;4940136;28;7348;-81
2022/10/09 09:09:52;;;;;;;;;;;;;;;15.41;56.47;101300.81;4941532;28;7495;-85
2022/10/09 09:12:54;;;;;;;;;;;;;;;15.53;55.93;101291.81;4939522;28;7297;-85
2022/10/09 09:15:46;;;;;;;;;;;;;;;15.62;55.80;101289.59;4937042;28;7009;-86
2022/10/09 09:18:42;;;;;;;;;;;;;;;15.73;55.99;101287.47;4920221;28;8468;-84
2022/10/09 09:21:38;;;;;;;;;;;;;;;15.83;55.48;101291.31;4940048;28;7164;-85
2022/10/09 09:24:28;;;;;;;;;;;;;;;15.90;54.82;101283.03;4940998;28;7234;-85
2022/10/09 09:27:01;;;;;;;;;;;;;;;15.96;55.25;101285.84;4938571;28;7180;-83
2022/10/09 09:29:39;;;;;;;;;;;;;;;16.06;54.90;101275.88;4949046;28;7211;-79
2022/10/09 09:32:21;;;;;;;;;;;;;;;16.16;54.75;101277.13;4951890;28;6828;-78
2022/10/09 09:34:47;;;;;;;;;;;;;;;16.24;54.62;101268.84;4936388;28;8724;-79
2022/10/09 09:37:13;;;;;;;;;;;;;;;16.32;54.26;101273.41;4950934;28;8492;-82
2022/10/09 09:39:40;;;;;;;;;;;;;;;16.41;54.16;101273.75;4941025;28;8583;-79
2022/10/09 09:42:08;;;;;;;;;;;;;;;16.50;53.81;101268.94;4950989;28;6969;-80
2022/10/09 09:44:42;;;;;;;;;;;;;;;16.60;53.68;101264.09;4959120;28;8373;-79
2022/10/09 09:47:32;;;;;;;;;;;;;;;16.69;53.18;101259.25;4963841;28;7201;-79
2022/10/09 09:50:00;;;;;;;;;;;;;;;16.79;53.54;101256.19;4944307;28;7265;-79
2022/10/09 09:52:34;;;;;;;;;;;;;;;16.90;52.97;101251.41;4946775;28;7189;-79
2022/10/09 09:55:01;;;;;;;;;;;;;;;17.00;52.74;101246.56;4948255;28;8584;-78
2022/10/09 09:57:35;;;;;;;;;;;;;;;17.11;52.29;101236.63;4947552;28;7163;-79
2022/10/09 10:00:22;;;;;;;;;;;;;;;17.22;52.35;101237.84;4951293;28;6979;-79
2022/10/09 10:02:49;;;;;;;;;;;;;;;17.40;52.16;101235.00;4949814;28;11838;-78
2022/10/09 10:05:21;;;;;;;;;;;;;;;18.12;52.66;101230.34;4939749;28;8430;-81
2022/10/09 10:07:49;;;;;;;;;;;;;;;19.45;50.34;101221.84;4927433;28;8764;-80
2022/10/09 10:10:28;;;;;;;;;;;;;;;21.04;47.57;101209.56;4943624;28;6800;-78
2022/10/09 10:12:59;;;;;;;;;;;;;;;22.58;44.71;101202.25;4933179;28;7003;-79
2022/10/09 10:15:29;;;;;;;;;;;;;;;23.81;41.95;101197.19;4928191;28;8421;-79
2022/10/09 10:18:06;;;;;;;;;;;;;;;25.08;40.07;101184.50;4948158;28;7235;-77
2022/10/09 10:20:42;;;;;;;;;;;;;;;26.34;38.20;101175.50;4931688;28;8445;-79
2022/10/09 10:23:36;;;;;;;;;;;;;;;27.38;36.35;101173.88;4929005;28;8396;-78
2022/10/09 10:26:42;;;;;;;;;;;;;;;28.32;34.99;101171.06;4929065;28;7292;-78
2022/10/09 10:29:19;;;;;;;;;;;;;;;28.95;33.63;101167.47;4924336;28;7232;-82
2022/10/09 10:32:17;;;;;;;;;;;;;;;29.46;33.07;101157.84;4932882;28;8393;-78
2022/10/09 10:35:02;;;;;;;;;;;;;;;30.03;32.28;101158.44;4925234;28;7063;-78
2022/10/09 10:37:59;;;;;;;;;;;;;;;30.30;31.72;101149.97;4942059;28;8399;-77
2022/10/09 10:40:41;;;;;;;;;;;;;;;30.55;31.86;101144.09;4948060;28;6985;-79
2022/10/09 10:43:09;;;;;;;;;;;;;;;30.84;31.20;101148.72;4946066;28;6952;-78
2022/10/09 10:45:58;;;;;;;;;;;;;;;31.11;30.80;101138.31;4927411;28;8405;-78
2022/10/09 10:48:38;;;;;;;;;;;;;;;31.43;30.34;101139.25;4942451;28;7215;-79
2022/10/09 10:51:43;;;;;;;;;;;;;;;31.59;29.99;101133.53;4938238;28;6804;-79
2022/10/09 10:54:34;;;;;;;;;;;;;;;31.60;29.36;101132.59;4937920;28;7324;-79
2022/10/09 10:57:22;;;;;;;;;;;;;;;31.59;29.55;101133.53;4940265;28;7801;-79
2022/10/09 11:00:06;;;;;;;;;;;;;;;31.58;28.82;101123.81;4942473;28;6804;-78
2022/10/09 11:03:17;;;;;;;;;;;;;;;31.68;29.03;101112.06;4923415;28;7005;-78
2022/10/09 11:06:22;;;;;;;;;;;;;;;31.98;28.30;101106.78;4929413;28;7226;-79
2022/10/09 11:09:55;;;;;;;;;;;;;;;32.26;27.71;101097.97;4931049;28;8730;-79
2022/10/09 11:12:43;;;;;;;;;;;;;;;32.42;27.85;101100.13;4892806;28;7028;-78
2022/10/09 11:15:43;;;;;;;;;;;;;;;32.63;27.33;101097.66;4943294;28;6804;-80
2022/10/09 11:18:26;;;;;;;;;;;;;;;32.78;27.18;101094.50;4941522;28;7187;-79
2022/10/09 11:21:12;;;;;;;;;;;;;;;32.85;26.71;101086.34;4939927;28;7212;-79
2022/10/09 11:24:03;;;;;;;;;;;;;;;32.87;26.61;101084.50;4941517;28;7234;-79
2022/10/09 11:27:01;;;;;;;;;;;;;;;32.81;26.35;101081.13;4942865;28;7054;-79
2022/10/09 11:29:55;;;;;;;;;;;;;;;32.87;26.21;101073.88;4940869;28;7291;-78
2022/10/09 11:32:44;;;;;;;;;;;;;;;32.92;25.87;101069.28;4943357;28;7269;-80
2022/10/09 11:35:21;;;;;;;;;;;;;;;32.95;25.76;101069.19;4940838;28;8502;-79
2022/10/09 11:38:01;;;;;;;;;;;;;;;32.91;25.20;101063.09;4938565;28;8771;-79
2022/10/09 11:40:42;;;;;;;;;;;;;;;32.80;25.77;101060.81;4927238;28;6804;-78
2022/10/09 11:43:23;;;;;;;;;;;;;;;32.68;25.74;101056.78;4940857;28;7092;-78
2022/10/09 11:46:14;;;;;;;;;;;;;;;32.71;25.67;101054.97;4938649;28;8469;-79
2022/10/09 11:49:27;;;;;;;;;;;;;;;32.80;25.52;101042.22;4943604;28;6958;-79
2022/10/09 11:52:07;;;;;;;;;;;;;;;32.89;25.07;101049.03;4930922;28;8860;-79
2022/10/09 11:54:34;;;;;;;;;;;;;;;32.99;24.72;101038.09;4943007;28;6994;-79
2022/10/09 11:57:04;;;;;;;;;;;;;;;33.15;25.21;101041.06;4941196;28;8436;-78
2022/10/09 11:59:40;;;;;;;;;;;;;;;33.36;24.57;101034.94;4933813;28;7193;-79
2022/10/09 12:02:34;;;;;;;;;;;;;;;33.55;24.46;101028.94;4940462;28;7240;-80
2022/10/09 12:05:00;;;;;;;;;;;;;;;33.59;24.30;101025.22;4939266;28;8521;-80
2022/10/09 12:07:37;;;;;;;;;;;;;;;33.58;23.45;101017.34;4935809;28;6804;-79
2022/10/09 12:10:29;;;;;;;;;;;;;;;33.03;23.21;101010.50;4943085;28;6856;-80
2022/10/09 12:13:01;;;;;;;;;;;;;;;31.73;23.84;101012.09;4944709;28;6966;-79
2022/10/09 12:15:47;;;;;;;;;;;;;;;30.00;24.84;101014.97;4925627;28;7319;-77
2022/10/09 12:18:45;;;;;;;;;;;;;;;28.53;26.08;101011.72;4940630;28;7320;-79
2022/10/09 12:21:47;;;;;;;;;;;;;;;27.05;27.56;101004.97;4945937;28;7276;-77
2022/10/09 12:24:23;;;;;;;;;;;;;;;25.98;29.22;101002.31;4949936;28;7201;-78
2022/10/09 12:26:54;;;;;;;;;;;;;;;25.27;30.06;100992.16;4934321;28;6861;-76
2022/10/09 12:29:30;;;;;;;;;;;;;;;24.73;30.65;100994.03;4935780;28;7163;-78
2022/10/09 12:32:05;;;;;;;;;;;;;;;24.32;31.04;100990.53;4934507;28;8707;-74
2022/10/09 12:34:47;;;;;;;;;;;;;;;23.94;31.49;100994.81;4948582;28;6789;-78
2022/10/09 12:37:20;;;;;;;;;;;;;;;23.59;32.32;100990.38;4937761;28;6993;-73
2022/10/09 12:39:48;;;;;;;;;;;;;;;23.29;32.66;100985.03;4944739;28;6812;-78
2022/10/09 12:42:22;;;;;;;;;;;;;;;23.02;33.38;100975.28;4943689;28;8487;-78
2022/10/09 12:44:52;;;;;;;;;;;;;;;22.84;33.59;100973.41;4936498;28;7156;-80
2022/10/09 12:47:25;;;;;;;;;;;;;;;22.71;33.92;100977.72;4945348;28;7239;-78
2022/10/09 12:50:12;;;;;;;;;;;;;;;22.59;33.89;100968.91;4943850;28;7075;-78
2022/10/09 12:52:48;;;;;;;;;;;;;;;22.45;34.52;100960.97;4946241;28;7314;-78
2022/10/09 12:55:27;;;;;;;;;;;;;;;22.35;34.67;100959.09;4936131;28;6964;-79
2022/10/09 12:58:20;;;;;;;;;;;;;;;22.22;34.85;100942.50;4946665;28;6994;-79
2022/10/09 13:00:51;;;;;;;;;;;;;;;22.12;34.77;100941.53;4931482;28;8565;-79
2022/10/09 13:03:35;;;;;;;;;;;;;;;22.06;34.85;100941.47;4947175;28;8403;-81
2022/10/09 13:06:15;;;;;;;;;;;;;;;21.99;34.89;100930.09;4936077;28;8976;-79
2022/10/09 13:08:43;;;;;;;;;;;;;;;21.99;34.95;100930.09;4945282;28;8490;-79
2022/10/09 13:11:27;;;;;;;;;;;;;;;21.96;34.84;100930.09;4943636;28;6966;-78
2022/10/09 13:13:54;;;;;;;;;;;;;;;21.91;35.40;100930.03;4946535;28;7111;-79
2022/10/09 13:16:22;;;;;;;;;;;;;;;21.91;35.03;100916.09;4924122;28;8572;-77
2022/10/09 13:19:03;;;;;;;;;;;;;;;21.92;34.77;100912.63;4930731;28;7016;-80
2022/10/09 13:21:32;;;;;;;;;;;;;;;21.93;35.02;100911.81;4946572;28;7241;-78
2022/10/09 13:24:12;;;;;;;;;;;;;;;21.96;34.96;100909.22;4930348;28;8455;-79
2022/10/09 13:26:42;;;;;;;;;;;;;;;21.99;34.69;100913.59;4946131;28;7227;-80
2022/10/09 13:29:08;;;;;;;;;;;;;;;22.03;34.87;100899.69;4936721;28;7271;-79